Time;durP1;ratioP1;P1;durP2;ratioP2;P2;SDS_P1;SDS_P2;PMS_P1;PMS_P2;Temp;Humidity;BMP_temperature;BMP_pressure;BME280_temperature;BME280_humidity;BME280_pressure;Samples;Min_cycle;Max_cycle;Signal;HPM_P1;HPM_P2
2023/03/16 00:00:53;;;;;;;7.30;2.40;;;0.40;99.90;;;;;;4996342;28;20634;-95
2023/03/16 00:03:20;;;;;;;4.63;2.70;;;0.40;99.90;;;;;;4996135;28;20836;-94
2023/03/16 00:05:50;;;;;;;6.83;2.20;;;0.30;99.90;;;;;;4996500;28;20215;-94
2023/03/16 00:08:17;;;;;;;6.60;2.30;;;0.40;99.90;;;;;;4996373;28;20557;-95
2023/03/16 00:10:46;;;;;;;4.73;2.13;;;0.30;99.90;;;;;;4996318;28;20172;-94
2023/03/16 00:13:18;;;;;;;7.03;2.67;;;0.20;99.90;;;;;;4996309;28;20250;-94
2023/03/16 00:15:59;;;;;;;4.23;2.37;;;0.20;99.90;;;;;;4996417;28;20599;-96
2023/03/16 00:18:27;;;;;;;5.37;2.80;;;0.20;99.90;;;;;;4995859;28;20186;-95
2023/03/16 00:20:58;;;;;;;4.17;2.03;;;0.30;99.90;;;;;;4995988;28;20206;-94
2023/03/16 00:23:34;;;;;;;7.27;1.93;;;0.20;99.90;;;;;;4996078;28;20555;-95
2023/03/16 00:26:02;;;;;;;3.70;1.80;;;0.20;99.90;;;;;;4995267;28;20175;-96
2023/03/16 00:28:34;;;;;;;7.40;2.63;;;0.20;99.90;;;;;;4978895;28;20172;-94
2023/03/16 00:31:04;;;;;;;5.43;1.83;;;0.20;99.90;;;;;;4978631;28;20176;-95
2023/03/16 00:33:45;;;;;;;4.43;1.70;;;0.20;99.90;;;;;;4995688;28;20211;-96
2023/03/16 00:36:11;;;;;;;6.33;2.03;;;0.20;99.90;;;;;;4995052;28;20171;-95
2023/03/16 00:38:39;;;;;;;3.57;1.90;;;0.10;99.90;;;;;;4996210;28;20172;-94
2023/03/16 00:41:06;;;;;;;5.13;2.13;;;0.10;99.90;;;;;;4995926;28;20168;-95
2023/03/16 00:43:39;;;;;;;4.70;1.97;;;0.10;99.90;;;;;;4995536;28;20259;-94
2023/03/16 00:46:15;;;;;;;6.33;1.73;;;0.10;99.90;;;;;;4978501;28;20613;-93
2023/03/16 00:48:43;;;;;;;5.03;1.80;;;0.10;99.90;;;;;;4970711;28;20234;-91
2023/03/16 00:51:14;;;;;;;7.67;2.23;;;0.10;99.90;;;;;;4976278;28;20177;-94
2023/03/16 00:53:42;;;;;;;3.57;1.97;;;0.20;99.90;;;;;;4975320;28;20217;-95
2023/03/16 00:56:09;;;;;;;6.63;1.90;;;0.10;99.90;;;;;;4958441;28;20180;-94
2023/03/16 00:58:36;;;;;;;6.20;1.73;;;0.10;99.90;;;;;;4976365;28;20180;-93
2023/03/16 01:01:03;;;;;;;3.17;1.40;;;0.20;99.90;;;;;;4976101;28;20172;-89
2023/03/16 01:03:32;;;;;;;5.27;2.20;;;0.10;99.90;;;;;;4958556;28;20181;-95
2023/03/16 01:06:10;;;;;;;3.83;1.57;;;0.10;99.90;;;;;;4975991;28;20224;-95
2023/03/16 01:08:37;;;;;;;6.03;1.60;;;0.10;99.90;;;;;;4976224;28;20263;-95
2023/03/16 01:11:05;;;;;;;5.60;2.00;;;0.10;99.90;;;;;;4958925;28;20199;-95
2023/03/16 01:13:32;;;;;;;5.77;1.83;;;0.00;99.90;;;;;;4958702;28;20298;-95
2023/03/16 01:15:59;;;;;;;3.73;1.70;;;0.00;99.90;;;;;;4976151;28;20252;-93
2023/03/16 01:18:26;;;;;;;4.33;1.80;;;-0.10;99.90;;;;;;4981429;28;20191;-94
2023/03/16 01:20:52;;;;;;;5.10;1.73;;;-0.10;99.90;;;;;;4995312;28;20251;-96
2023/03/16 01:23:19;;;;;;;4.97;1.60;;;-0.10;99.90;;;;;;4977687;28;20218;-93
2023/03/16 01:25:52;;;;;;;3.23;1.53;;;-0.10;99.90;;;;;;4978203;28;20511;-94
2023/03/16 01:28:20;;;;;;;4.10;1.33;;;-0.10;99.90;;;;;;4978318;28;20183;-94
2023/03/16 01:30:46;;;;;;;4.10;1.67;;;-0.10;99.90;;;;;;4995011;28;20242;-96
2023/03/16 01:33:12;;;;;;;4.33;1.60;;;-0.10;99.90;;;;;;4995104;28;20655;-86
2023/03/16 01:35:37;;;;;;;3.60;1.60;;;-0.10;99.90;;;;;;4995034;28;20172;-93
2023/03/16 01:38:03;;;;;;;4.43;1.73;;;-0.10;99.90;;;;;;4995355;28;20215;-94
2023/03/16 01:40:30;;;;;;;4.73;2.00;;;-0.10;99.90;;;;;;4994338;28;20176;-96
2023/03/16 01:43:01;;;;;;;6.90;1.83;;;-0.10;99.90;;;;;;4995286;28;20665;-94
2023/03/16 01:46:13;;;;;;;3.13;1.43;;;-0.10;99.90;;;;;;4995182;28;20198;-94
2023/03/16 01:48:53;;;;;;;2.63;1.40;;;-0.10;99.90;;;;;;4992578;28;20195;-95
2023/03/16 01:51:35;;;;;;;3.67;1.50;;;-0.10;99.90;;;;;;4995298;28;20222;-91
2023/03/16 01:54:41;;;;;;;3.87;1.53;;;-0.10;99.90;;;;;;4995251;28;20235;-95
2023/03/16 01:57:32;;;;;;;7.70;1.80;;;-0.10;99.90;;;;;;4982437;28;20195;-96
2023/03/16 02:00:19;;;;;;;6.30;1.47;;;-0.10;99.90;;;;;;4977782;28;20193;-96
2023/03/16 02:02:53;;;;;;;2.53;1.30;;;-0.10;99.90;;;;;;4995119;28;20160;-95
2023/03/16 02:05:32;;;;;;;4.30;1.37;;;0.00;99.90;;;;;;4977241;28;20187;-94
2023/03/16 02:07:59;;;;;;;4.90;1.40;;;0.00;99.90;;;;;;4977897;28;20184;-92
2023/03/16 02:10:27;;;;;;;3.13;1.40;;;0.00;99.90;;;;;;4995170;28;20183;-95
2023/03/16 02:12:54;;;;;;;3.23;1.30;;;0.10;99.90;;;;;;4996584;28;20200;-95
2023/03/16 02:15:21;;;;;;;7.93;1.70;;;0.10;99.90;;;;;;4998719;28;20172;-94
2023/03/16 02:17:49;;;;;;;4.27;1.27;;;0.10;99.90;;;;;;4980901;28;20641;-94
2023/03/16 02:20:33;;;;;;;6.07;1.40;;;0.10;99.90;;;;;;4978856;28;20176;-94
2023/03/16 02:22:59;;;;;;;3.60;1.20;;;0.20;99.90;;;;;;4978996;28;20161;-93
2023/03/16 02:25:40;;;;;;;1.50;1.03;;;0.10;99.90;;;;;;4978789;28;20190;-94
2023/03/16 02:28:21;;;;;;;5.87;1.30;;;0.10;99.90;;;;;;4978811;28;20255;-95
2023/03/16 02:30:47;;;;;;;7.53;1.60;;;0.10;99.90;;;;;;4978753;28;20603;-95
2023/03/16 02:33:16;;;;;;;6.50;1.33;;;0.10;99.90;;;;;;4978635;28;20254;-94
2023/03/16 02:35:48;;;;;;;2.40;1.37;;;0.10;99.90;;;;;;4978477;28;20181;-93
2023/03/16 02:38:13;;;;;;;5.03;1.57;;;0.10;99.90;;;;;;4977719;28;20592;-94
2023/03/16 02:40:42;;;;;;;4.83;1.23;;;0.10;99.90;;;;;;4977514;28;20172;-94
2023/03/16 02:43:15;;;;;;;4.77;1.20;;;0.10;99.90;;;;;;4977582;28;20185;-94
2023/03/16 02:45:47;;;;;;;7.33;1.73;;;0.10;99.90;;;;;;4978659;28;20596;-92
2023/03/16 02:48:18;;;;;;;3.83;1.17;;;0.10;99.90;;;;;;4982294;28;20183;-94
2023/03/16 02:50:47;;;;;;;9.60;1.20;;;0.20;99.90;;;;;;4980195;28;20187;-94
2023/03/16 02:53:13;;;;;;;5.57;1.40;;;0.10;99.90;;;;;;4997615;28;20207;-94
2023/03/16 02:55:47;;;;;;;4.63;1.20;;;0.10;99.90;;;;;;4997889;28;20172;-94
2023/03/16 02:58:14;;;;;;;2.63;1.10;;;0.10;99.90;;;;;;4997848;28;20160;-94
2023/03/16 03:00:39;;;;;;;3.50;1.20;;;0.10;99.90;;;;;;5332969;23;20187;-85
2023/03/16 03:03:07;;;;;;;2.17;1.07;;;0.10;99.90;;;;;;4998524;28;20256;-89
2023/03/16 03:05:33;;;;;;;2.33;1.13;;;0.10;99.90;;;;;;5016027;28;20167;-87
2023/03/16 03:07:58;;;;;;;3.30;1.07;;;0.10;99.90;;;;;;5016830;28;20180;-87
2023/03/16 03:10:24;;;;;;;1.43;0.73;;;0.10;99.90;;;;;;4999545;28;20179;-85
2023/03/16 03:12:51;;;;;;;7.30;1.10;;;0.10;99.90;;;;;;4999448;28;20345;-86
2023/03/16 03:15:17;;;;;;;5.73;2.13;;;0.10;99.90;;;;;;4999475;28;20186;-86
2023/03/16 03:17:44;;;;;;;8.73;1.30;;;0.10;99.90;;;;;;5016482;28;20167;-85
2023/03/16 03:20:17;;;;;;;4.30;1.30;;;0.20;99.90;;;;;;4999166;28;20241;-85
2023/03/16 03:22:46;;;;;;;3.87;1.10;;;0.10;99.90;;;;;;4999364;28;20175;-86
2023/03/16 03:25:15;;;;;;;2.93;0.90;;;0.10;99.90;;;;;;4999181;28;20186;-85
2023/03/16 03:27:41;;;;;;;1.57;1.00;;;0.10;99.90;;;;;;4999142;28;20184;-86
2023/03/16 03:30:19;;;;;;;1.50;0.90;;;0.00;99.90;;;;;;4999017;28;20181;-85
2023/03/16 03:32:48;;;;;;;3.67;1.17;;;0.00;99.90;;;;;;4998199;28;20359;-85
2023/03/16 03:35:14;;;;;;;2.67;1.00;;;-0.10;99.90;;;;;;5016419;28;20176;-85
2023/03/16 03:37:41;;;;;;;1.27;0.60;;;-0.20;99.90;;;;;;4999049;28;20652;-86
2023/03/16 03:40:10;;;;;;;4.23;1.10;;;-0.30;99.90;;;;;;4998696;28;20189;-86
2023/03/16 03:42:37;;;;;;;2.77;1.00;;;-0.30;99.90;;;;;;4998842;28;20190;-85
2023/03/16 03:45:04;;;;;;;3.27;1.37;;;-0.40;99.90;;;;;;4998939;28;20184;-85
2023/03/16 03:47:29;;;;;;;2.53;0.93;;;-0.40;99.90;;;;;;4998481;28;20202;-86
2023/03/16 03:49:55;;;;;;;2.47;1.03;;;-0.40;99.90;;;;;;4998487;28;20206;-85
2023/03/16 03:52:27;;;;;;;2.43;0.80;;;-0.40;99.90;;;;;;4998484;28;20199;-85
2023/03/16 03:54:53;;;;;;;3.40;1.03;;;-0.30;99.90;;;;;;4998634;28;20186;-88
2023/03/16 03:57:19;;;;;;;3.53;1.03;;;-0.30;99.90;;;;;;4998808;28;20178;-87
2023/03/16 03:59:44;;;;;;;1.80;0.83;;;-0.30;99.90;;;;;;4998582;28;20194;-88
2023/03/16 04:02:12;;;;;;;1.47;0.77;;;-0.30;99.90;;;;;;5008834;28;20557;-88
2023/03/16 04:04:39;;;;;;;4.23;1.23;;;-0.40;99.90;;;;;;5014988;28;20179;-87
2023/03/16 04:07:05;;;;;;;2.50;1.20;;;-0.40;99.90;;;;;;5014089;28;20183;-87
2023/03/16 04:09:33;;;;;;;1.47;0.90;;;-0.40;99.90;;;;;;5014472;28;20273;-87
2023/03/16 04:12:00;;;;;;;2.60;0.80;;;-0.40;99.90;;;;;;5014746;28;20171;-87
2023/03/16 04:14:38;;;;;;;4.73;1.10;;;-0.60;99.90;;;;;;5014577;28;20187;-88
2023/03/16 04:17:04;;;;;;;1.67;0.93;;;-0.60;99.90;;;;;;5014547;28;20698;-87
2023/03/16 04:19:30;;;;;;;5.50;0.90;;;-0.60;99.90;;;;;;5014628;28;20293;-87
2023/03/16 04:21:55;;;;;;;2.50;1.00;;;-0.60;99.90;;;;;;5015703;28;20174;-88
2023/03/16 04:24:23;;;;;;;3.30;1.00;;;-0.60;99.90;;;;;;5014278;28;20189;-87
2023/03/16 04:26:48;;;;;;;3.73;1.17;;;-0.60;99.90;;;;;;5014496;28;20172;-87
2023/03/16 04:29:16;;;;;;;3.83;1.13;;;-0.60;99.90;;;;;;5014356;28;20282;-87
2023/03/16 04:31:43;;;;;;;5.33;1.33;;;-0.60;99.90;;;;;;5013977;28;20211;-88
2023/03/16 04:34:12;;;;;;;1.80;0.80;;;-0.50;99.90;;;;;;5014325;28;20645;-87
2023/03/16 04:36:38;;;;;;;2.87;0.87;;;-0.50;99.90;;;;;;5013833;28;20188;-87
2023/03/16 04:39:04;;;;;;;2.87;1.17;;;-0.40;99.90;;;;;;5014278;28;20191;-87
2023/03/16 04:41:31;;;;;;;3.83;0.90;;;-0.40;99.90;;;;;;5013892;28;20633;-87
2023/03/16 04:43:56;;;;;;;3.67;0.93;;;-0.40;99.90;;;;;;5014223;28;20222;-87
2023/03/16 04:46:23;;;;;;;4.67;1.00;;;-0.40;99.90;;;;;;5014077;28;20206;-87
2023/03/16 04:48:49;;;;;;;4.43;0.90;;;-0.40;99.90;;;;;;5015210;28;20175;-87
2023/03/16 04:51:14;;;;;;;2.73;0.80;;;-0.40;99.90;;;;;;5014095;28;20191;-87
2023/03/16 04:53:44;;;;;;;3.70;0.90;;;-0.40;99.90;;;;;;5014119;28;20215;-87
2023/03/16 04:56:18;;;;;;;3.73;1.10;;;-0.40;99.90;;;;;;5014351;28;20613;-87
2023/03/16 04:58:48;;;;;;;3.83;0.97;;;-0.40;99.90;;;;;;5014391;28;20190;-87
2023/03/16 05:01:15;;;;;;;7.00;1.33;;;-0.40;99.90;;;;;;5013492;28;20234;-87
2023/03/16 05:03:42;;;;;;;5.67;1.60;;;-0.30;99.90;;;;;;5014050;28;20187;-88
2023/03/16 05:06:09;;;;;;;5.07;1.00;;;-0.30;99.90;;;;;;5014035;28;20204;-87
2023/03/16 05:08:35;;;;;;;4.73;1.10;;;-0.30;99.90;;;;;;5013788;28;20217;-87
2023/03/16 05:11:01;;;;;;;2.03;0.90;;;-0.30;99.90;;;;;;5013792;28;20605;-88
2023/03/16 05:13:28;;;;;;;2.80;0.90;;;-0.30;99.90;;;;;;5015257;28;20220;-87
2023/03/16 05:15:53;;;;;;;1.87;0.80;;;-0.30;99.90;;;;;;5013907;28;20501;-88
2023/03/16 05:18:20;;;;;;;2.33;1.27;;;-0.30;99.90;;;;;;5013742;28;20208;-88
2023/03/16 05:20:50;;;;;;;2.60;0.80;;;-0.40;99.90;;;;;;5013710;28;20179;-88
2023/03/16 05:23:17;;;;;;;2.87;1.00;;;-0.40;99.90;;;;;;5013615;28;20190;-87
2023/03/16 05:25:42;;;;;;;2.50;0.77;;;-0.40;99.90;;;;;;5013915;28;20660;-88
2023/03/16 05:28:08;;;;;;;2.77;0.80;;;-0.40;99.90;;;;;;5014087;28;20179;-86
2023/03/16 05:30:33;;;;;;;6.57;1.47;;;-0.50;99.90;;;;;;5013424;28;20518;-86
2023/03/16 05:32:59;;;;;;;2.27;0.73;;;-0.50;99.90;;;;;;5014447;28;20225;-87
2023/03/16 05:35:27;;;;;;;2.00;0.90;;;-0.40;99.90;;;;;;5013918;28;20618;-87
2023/03/16 05:37:52;;;;;;;2.77;0.70;;;-0.30;99.90;;;;;;5014032;28;20194;-87
2023/03/16 05:40:21;;;;;;;3.03;1.00;;;-0.30;99.90;;;;;;5000552;28;20186;-88
2023/03/16 05:42:53;;;;;;;6.87;1.07;;;-0.30;99.90;;;;;;4993875;28;20180;-87
2023/03/16 05:45:19;;;;;;;5.47;1.20;;;-0.30;99.90;;;;;;4994404;28;20168;-87
2023/03/16 05:47:45;;;;;;;3.20;1.17;;;-0.30;99.90;;;;;;4995009;28;20172;-87
2023/03/16 05:50:12;;;;;;;2.80;1.00;;;-0.30;99.90;;;;;;5014766;28;20194;-87
2023/03/16 05:52:39;;;;;;;2.17;0.80;;;-0.30;99.90;;;;;;5017157;28;20301;-88
2023/03/16 05:55:08;;;;;;;7.10;0.80;;;-0.30;99.90;;;;;;5017429;28;20229;-88
2023/03/16 05:57:34;;;;;;;1.70;0.73;;;-0.20;99.90;;;;;;5017306;28;20187;-88
2023/03/16 06:00:01;;;;;;;6.30;1.13;;;-0.20;99.90;;;;;;5016842;28;20182;-87
2023/03/16 06:02:27;;;;;;;3.90;0.80;;;-0.10;99.90;;;;;;5014898;28;20350;-89
2023/03/16 06:04:58;;;;;;;3.10;0.80;;;0.00;99.90;;;;;;5000111;28;20187;-88
2023/03/16 06:07:23;;;;;;;1.40;0.83;;;0.10;99.90;;;;;;5000572;28;20175;-88
2023/03/16 06:09:49;;;;;;;3.03;1.07;;;0.10;99.90;;;;;;5000698;28;20629;-88
2023/03/16 06:12:15;;;;;;;6.00;1.17;;;0.10;99.90;;;;;;5000234;28;20191;-89
2023/03/16 06:14:42;;;;;;;4.13;1.37;;;0.10;99.90;;;;;;5000687;28;20198;-88
2023/03/16 06:17:07;;;;;;;2.57;0.93;;;0.10;99.90;;;;;;5000609;28;20245;-87
2023/03/16 06:19:33;;;;;;;2.37;1.20;;;0.10;99.90;;;;;;5000406;28;20629;-87
2023/03/16 06:21:59;;;;;;;3.47;0.90;;;0.20;99.90;;;;;;5018047;28;20522;-88
2023/03/16 06:24:28;;;;;;;3.20;0.80;;;0.30;99.90;;;;;;5000420;28;20619;-88
2023/03/16 06:26:54;;;;;;;6.63;1.60;;;0.30;99.90;;;;;;5000569;28;20180;-88
2023/03/16 06:29:20;;;;;;;3.57;0.93;;;0.40;99.90;;;;;;5000299;28;20185;-88
2023/03/16 06:31:46;;;;;;;4.27;1.00;;;0.40;99.90;;;;;;4999880;28;20262;-88
2023/03/16 06:34:15;;;;;;;3.70;1.10;;;0.50;99.90;;;;;;5000013;28;20240;-88
2023/03/16 06:36:41;;;;;;;2.37;1.00;;;0.50;99.90;;;;;;5000372;28;20175;-86
2023/03/16 06:39:07;;;;;;;3.73;0.80;;;0.60;99.90;;;;;;5017632;28;20651;-87
2023/03/16 06:41:34;;;;;;;4.43;1.00;;;0.60;99.90;;;;;;5000120;28;20241;-86
2023/03/16 06:44:00;;;;;;;6.70;1.20;;;0.70;99.90;;;;;;5000026;28;20179;-88
2023/03/16 06:46:26;;;;;;;2.67;1.20;;;0.70;99.90;;;;;;4999711;28;20183;-88
2023/03/16 06:48:52;;;;;;;2.57;1.10;;;0.80;99.90;;;;;;4999913;28;20193;-88
2023/03/16 06:51:18;;;;;;;3.20;1.30;;;0.80;99.90;;;;;;4999886;28;20179;-88
2023/03/16 06:53:43;;;;;;;3.93;1.20;;;0.90;99.90;;;;;;4999873;28;20219;-89
2023/03/16 06:56:11;;;;;;;6.60;1.20;;;1.00;99.90;;;;;;4999804;28;20233;-88
2023/03/16 06:58:37;;;;;;;3.70;1.27;;;1.10;99.90;;;;;;4999469;28;20180;-88
2023/03/16 07:01:03;;;;;;;6.50;1.30;;;1.20;99.90;;;;;;5000543;28;20223;-87
2023/03/16 07:03:30;;;;;;;3.10;1.20;;;1.40;99.90;;;;;;5015492;28;20257;-87
2023/03/16 07:05:56;;;;;;;8.93;1.20;;;1.60;99.90;;;;;;5009030;28;20184;-87
2023/03/16 07:08:21;;;;;;;5.67;1.17;;;1.70;99.90;;;;;;4996059;28;20238;-87
2023/03/16 07:10:49;;;;;;;3.23;1.07;;;1.80;99.90;;;;;;5012178;28;20526;-87
2023/03/16 07:13:15;;;;;;;2.60;1.00;;;1.90;99.90;;;;;;4996003;28;20247;-87
2023/03/16 07:15:41;;;;;;;3.00;0.83;;;2.00;99.90;;;;;;5004402;28;20186;-87
2023/03/16 07:18:06;;;;;;;2.50;0.90;;;2.10;99.90;;;;;;5015105;28;20266;-87
2023/03/16 07:20:32;;;;;;;2.87;1.10;;;2.20;99.90;;;;;;5015266;28;20179;-86
2023/03/16 07:22:58;;;;;;;4.23;1.00;;;2.30;99.90;;;;;;5014006;28;20696;-86
2023/03/16 07:25:23;;;;;;;2.13;1.13;;;2.30;99.90;;;;;;5014199;28;20175;-86
2023/03/16 07:27:49;;;;;;;3.20;0.90;;;2.20;99.90;;;;;;5014790;28;20172;-84
2023/03/16 07:30:15;;;;;;;4.83;0.97;;;2.30;99.90;;;;;;5015833;28;20182;-84
2023/03/16 07:32:41;;;;;;;5.70;1.20;;;2.30;99.90;;;;;;5015986;28;20246;-84
2023/03/16 07:35:08;;;;;;;4.20;1.13;;;2.30;99.90;;;;;;5014969;28;20629;-84
2023/03/16 07:37:35;;;;;;;2.70;0.97;;;2.30;99.90;;;;;;5014291;28;20230;-83
2023/03/16 07:40:02;;;;;;;2.80;1.07;;;2.40;99.90;;;;;;5014481;28;20183;-86
2023/03/16 07:42:28;;;;;;;5.10;1.10;;;2.40;99.90;;;;;;5015418;28;20175;-84
2023/03/16 07:44:54;;;;;;;5.53;1.20;;;2.40;99.90;;;;;;5014334;28;20664;-85
2023/03/16 07:47:19;;;;;;;2.93;1.13;;;2.40;99.90;;;;;;5013514;28;20167;-84
2023/03/16 07:49:45;;;;;;;4.07;1.20;;;2.50;99.90;;;;;;5013856;28;20185;-83
2023/03/16 07:52:14;;;;;;;2.60;1.00;;;2.50;99.90;;;;;;5015060;28;20175;-83
2023/03/16 07:54:40;;;;;;;4.73;1.30;;;2.60;99.90;;;;;;5013765;28;20270;-83
2023/03/16 07:57:07;;;;;;;4.50;1.00;;;2.70;99.90;;;;;;5013237;28;20179;-83
2023/03/16 07:59:32;;;;;;;4.30;1.00;;;2.80;99.90;;;;;;5013479;28;20183;-83
2023/03/16 08:01:58;;;;;;;3.97;1.40;;;2.90;99.90;;;;;;5013171;28;20242;-82
2023/03/16 08:04:24;;;;;;;3.97;1.30;;;2.90;99.90;;;;;;5012947;28;20745;-81
2023/03/16 08:06:52;;;;;;;3.93;1.30;;;3.00;99.90;;;;;;5013397;28;20179;-84
2023/03/16 08:09:17;;;;;;;5.17;1.23;;;3.10;99.90;;;;;;5013115;28;20257;-82
2023/03/16 08:11:43;;;;;;;3.63;1.20;;;3.10;99.90;;;;;;5008528;28;20229;-81
2023/03/16 08:14:09;;;;;;;5.93;1.23;;;3.20;99.90;;;;;;5013934;28;20349;-82
2023/03/16 08:16:36;;;;;;;2.80;1.00;;;3.30;99.90;;;;;;5012298;28;20186;-81
2023/03/16 08:19:02;;;;;;;4.50;1.33;;;3.40;99.90;;;;;;5012612;28;20179;-81
2023/03/16 08:21:29;;;;;;;2.43;1.00;;;3.60;99.90;;;;;;5013232;28;20194;-83
2023/03/16 08:23:54;;;;;;;2.70;1.03;;;3.60;99.90;;;;;;5012211;28;20175;-83
2023/03/16 08:26:21;;;;;;;4.40;1.50;;;3.60;99.90;;;;;;5012706;28;20270;-83
2023/03/16 08:28:50;;;;;;;4.43;1.20;;;3.70;99.90;;;;;;5014439;28;20225;-83
2023/03/16 08:31:17;;;;;;;4.23;1.00;;;3.70;99.90;;;;;;5011267;28;20540;-83
2023/03/16 08:33:45;;;;;;;5.10;1.40;;;3.80;99.90;;;;;;5010289;28;20269;-84
2023/03/16 08:36:14;;;;;;;3.37;1.10;;;3.80;99.90;;;;;;5012283;28;20172;-83
2023/03/16 08:38:41;;;;;;;3.43;1.10;;;4.00;99.90;;;;;;5013763;28;20179;-83
2023/03/16 08:41:07;;;;;;;3.77;1.20;;;4.10;99.90;;;;;;5013328;28;20183;-83
2023/03/16 08:43:34;;;;;;;2.20;0.97;;;4.20;99.90;;;;;;5012939;28;20190;-83
2023/03/16 08:46:00;;;;;;;4.50;1.00;;;4.30;99.90;;;;;;5011187;28;20520;-84
2023/03/16 08:48:27;;;;;;;2.20;1.00;;;4.40;99.90;;;;;;5011735;28;20517;-83
2023/03/16 08:50:54;;;;;;;5.30;1.53;;;4.60;99.90;;;;;;5013454;28;20715;-83
2023/03/16 08:53:20;;;;;;;3.77;1.00;;;4.70;99.90;;;;;;5011458;28;20218;-83
2023/03/16 08:55:46;;;;;;;2.17;0.87;;;4.80;99.90;;;;;;5011061;28;20175;-82
2023/03/16 08:58:12;;;;;;;2.97;1.20;;;4.90;99.90;;;;;;5011942;28;20697;-83
2023/03/16 09:00:39;;;;;;;3.47;1.20;;;5.00;99.90;;;;;;5013365;28;20278;-83
2023/03/16 09:03:05;;;;;;;5.03;0.80;;;5.00;99.90;;;;;;4995719;28;20210;-83
2023/03/16 09:05:31;;;;;;;3.50;0.83;;;5.10;99.90;;;;;;4995839;28;20614;-83
2023/03/16 09:07:57;;;;;;;2.53;0.80;;;5.20;99.90;;;;;;4990084;28;20176;-83
2023/03/16 09:10:24;;;;;;;2.57;0.77;;;5.40;99.90;;;;;;5011894;28;20187;-83
2023/03/16 09:12:51;;;;;;;2.77;0.90;;;5.50;99.90;;;;;;4994850;28;20210;-83
2023/03/16 09:15:18;;;;;;;3.50;0.93;;;5.50;99.90;;;;;;5012731;28;20175;-82
2023/03/16 09:17:45;;;;;;;1.93;0.93;;;5.60;99.90;;;;;;5012370;28;20586;-83
2023/03/16 09:20:13;;;;;;;2.80;0.80;;;5.70;99.90;;;;;;4995414;28;20560;-83
2023/03/16 09:22:39;;;;;;;3.63;0.70;;;5.90;99.90;;;;;;4998409;28;20186;-83
2023/03/16 09:25:07;;;;;;;3.13;0.93;;;6.10;99.90;;;;;;5017024;28;20529;-83
2023/03/16 09:27:35;;;;;;;1.47;0.80;;;6.20;99.90;;;;;;5000171;28;20175;-83
2023/03/16 09:30:06;;;;;;;1.10;0.70;;;6.20;99.90;;;;;;5000050;28;20598;-83
2023/03/16 09:32:32;;;;;;;4.53;1.23;;;6.30;99.90;;;;;;4999653;28;20214;-84
2023/03/16 09:34:58;;;;;;;4.43;0.97;;;6.40;99.20;;;;;;5016451;28;20172;-83
2023/03/16 09:37:25;;;;;;;1.63;0.77;;;6.50;99.50;;;;;;4999470;28;20306;-83
2023/03/16 09:39:51;;;;;;;2.50;0.60;;;6.60;99.30;;;;;;5017526;28;20155;-82
2023/03/16 09:42:40;;;;;;;8.43;1.10;;;6.60;99.10;;;;;;4998863;28;20493;-83
2023/03/16 09:45:41;;;;;;;3.80;0.97;;;6.60;98.90;;;;;;4999939;28;20226;-83
2023/03/16 09:48:09;;;;;;;2.57;0.60;;;6.60;98.00;;;;;;4999659;28;20171;-81
2023/03/16 09:50:38;;;;;;;2.23;0.83;;;6.60;96.70;;;;;;4999844;28;20610;-84
2023/03/16 09:53:30;;;;;;;2.30;0.80;;;6.60;94.20;;;;;;5017099;28;20233;-83
2023/03/16 09:56:12;;;;;;;2.60;0.70;;;6.70;94.80;;;;;;4998496;28;20196;-83
2023/03/16 09:58:38;;;;;;;2.50;0.70;;;6.80;93.60;;;;;;4999642;28;20263;-84
2023/03/16 10:01:33;;;;;;;2.00;0.60;;;6.90;93.40;;;;;;5000659;28;20310;-84
2023/03/16 10:04:24;;;;;;;2.37;0.70;;;7.00;91.70;;;;;;4996154;28;20639;-82
2023/03/16 10:07:05;;;;;;;3.67;0.73;;;7.10;93.50;;;;;;4996493;28;20172;-84
2023/03/16 10:09:46;;;;;;;3.87;0.83;;;7.20;91.10;;;;;;4996208;28;20200;-84
2023/03/16 10:12:14;;;;;;;6.60;0.70;;;7.30;91.80;;;;;;4995962;28;20172;-82
2023/03/16 10:14:51;;;;;;;2.33;0.80;;;7.40;91.50;;;;;;4996165;28;20623;-84
2023/03/16 10:17:41;;;;;;;5.07;0.60;;;7.50;93.40;;;;;;4995866;28;20206;-83
2023/03/16 10:20:19;;;;;;;2.37;0.80;;;7.70;93.00;;;;;;5013348;28;20265;-84
2023/03/16 10:22:48;;;;;;;2.37;0.70;;;7.70;92.80;;;;;;5016879;28;20680;-83
2023/03/16 10:25:45;;;;;;;2.47;0.50;;;7.80;94.10;;;;;;5015219;28;20187;-83
2023/03/16 10:28:25;;;;;;;2.10;0.60;;;7.90;92.20;;;;;;5015363;28;20278;-85
2023/03/16 10:30:54;;;;;;;3.37;0.77;;;7.80;92.10;;;;;;5015591;28;20163;-84
2023/03/16 10:33:32;;;;;;;0.97;0.47;;;7.90;90.50;;;;;;5015389;28;20701;-84
2023/03/16 10:36:11;;;;;;;1.33;0.60;;;8.00;85.30;;;;;;5015423;28;20175;-83
2023/03/16 10:38:39;;;;;;;4.33;1.00;;;8.10;84.50;;;;;;5015386;28;20175;-85
2023/03/16 10:41:17;;;;;;;2.17;0.60;;;8.00;81.80;;;;;;5031550;28;20186;-83
2023/03/16 10:44:06;;;;;;;1.93;0.57;;;8.10;89.50;;;;;;5031650;28;20321;-84
2023/03/16 10:46:59;;;;;;;4.30;0.90;;;8.20;84.40;;;;;;5015353;28;20179;-84
2023/03/16 10:49:47;;;;;;;1.83;0.60;;;8.20;90.80;;;;;;5016001;28;20179;-84
2023/03/16 10:52:28;;;;;;;1.40;0.57;;;8.30;86.70;;;;;;5015103;28;20210;-85
2023/03/16 10:54:58;;;;;;;3.17;0.87;;;8.40;84.80;;;;;;5010545;28;20191;-85
2023/03/16 10:57:33;;;;;;;1.70;0.60;;;8.40;83.50;;;;;;5018566;28;20260;-84
2023/03/16 11:00:21;;;;;;;5.97;0.63;;;8.30;85.20;;;;;;5012032;28;20214;-84
2023/03/16 11:02:53;;;;;;;3.13;0.93;;;8.40;83.60;;;;;;4978620;28;20232;-84
2023/03/16 11:05:27;;;;;;;2.00;0.70;;;8.40;83.10;;;;;;4978561;28;20193;-85
2023/03/16 11:08:12;;;;;;;1.77;0.60;;;8.40;82.90;;;;;;4979049;28;20230;-84
2023/03/16 11:10:46;;;;;;;3.20;0.90;;;8.40;81.10;;;;;;4978653;28;20187;-84
2023/03/16 11:13:14;;;;;;;2.03;0.73;;;8.50;84.00;;;;;;4977509;28;20586;-85
2023/03/16 11:15:49;;;;;;;0.90;0.47;;;8.60;82.40;;;;;;4994936;28;20176;-84
2023/03/16 11:18:32;;;;;;;1.90;0.40;;;8.70;83.10;;;;;;4985703;28;20187;-85
2023/03/16 11:21:11;;;;;;;3.80;0.63;;;8.80;81.90;;;;;;4988770;28;20180;-84
2023/03/16 11:23:43;;;;;;;1.40;0.60;;;8.90;81.00;;;;;;4977204;28;20176;-84
2023/03/16 11:26:24;;;;;;;1.57;0.57;;;8.90;83.90;;;;;;4977761;28;20187;-84
2023/03/16 11:29:08;;;;;;;2.80;0.60;;;9.00;80.80;;;;;;4996003;28;20156;-84
2023/03/16 11:31:52;;;;;;;3.63;0.75;;;9.00;83.70;;;;;;4978452;28;20172;-85
2023/03/16 11:34:21;;;;;;;3.15;0.70;;;9.10;85.80;;;;;;4977093;28;20591;-84
2023/03/16 11:36:52;;;;;;;5.67;0.80;;;9.10;83.00;;;;;;4993243;28;20176;-86
2023/03/16 11:39:31;;;;;;;1.48;0.50;;;9.10;81.00;;;;;;4978612;28;20175;-83
2023/03/16 11:42:08;;;;;;;2.38;0.60;;;9.30;81.90;;;;;;4977307;28;20176;-85
2023/03/16 11:45:00;;;;;;;1.23;0.50;;;9.40;77.60;;;;;;4959083;28;20193;-83
2023/03/16 11:47:59;;;;;;;1.90;0.60;;;9.40;83.90;;;;;;4958613;28;20177;-84
2023/03/16 11:50:30;;;;;;;2.10;0.60;;;9.60;83.00;;;;;;4963029;28;20206;-84
2023/03/16 11:53:06;;;;;;;2.00;0.67;;;9.50;81.20;;;;;;4976205;28;20255;-86
2023/03/16 11:55:38;;;;;;;2.13;0.73;;;9.30;74.20;;;;;;4958862;28;20266;-85
2023/03/16 11:58:16;;;;;;;4.07;0.52;;;9.20;79.30;;;;;;4975900;28;20177;-85
2023/03/16 12:01:00;;;;;;;1.97;0.50;;;9.20;79.80;;;;;;4977405;28;20219;-86
2023/03/16 12:03:52;;;;;;;2.83;0.50;;;9.30;79.30;;;;;;4977372;28;20601;-81
2023/03/16 12:06:39;;;;;;;2.20;0.80;;;9.30;82.00;;;;;;4994014;28;20184;-84
2023/03/16 12:09:12;;;;;;;3.38;1.10;;;9.20;81.40;;;;;;4995354;28;20167;-83
2023/03/16 12:11:52;;;;;;;3.35;0.60;;;9.10;83.80;;;;;;4994135;28;20191;-84
2023/03/16 12:14:32;;;;;;;5.90;0.70;;;9.00;77.80;;;;;;4977697;28;20215;-84
2023/03/16 12:17:01;;;;;;;0.75;0.47;;;9.10;82.60;;;;;;4995611;28;20814;-85
2023/03/16 12:19:37;;;;;;;1.70;0.60;;;9.10;78.10;;;;;;4989258;28;20195;-84
2023/03/16 12:22:28;;;;;;;1.50;0.50;;;9.40;82.00;;;;;;5014837;28;20221;-84
2023/03/16 12:24:54;;;;;;;2.15;0.47;;;9.50;74.80;;;;;;4997159;28;20171;-84
2023/03/16 12:27:24;;;;;;;1.70;0.52;;;9.70;77.10;;;;;;5014781;28;20182;-85
2023/03/16 12:30:12;;;;;;;1.00;0.55;;;9.70;73.90;;;;;;5014778;28;20591;-85
2023/03/16 12:32:44;;;;;;;2.00;0.63;;;9.70;72.50;;;;;;5014499;28;20259;-85
2023/03/16 12:35:21;;;;;;;3.72;0.50;;;9.70;77.20;;;;;;4987911;28;20630;-85
2023/03/16 12:37:59;;;;;;;4.32;0.70;;;9.70;73.40;;;;;;4996977;28;20178;-87
2023/03/16 12:40:38;;;;;;;0.90;0.45;;;9.80;75.00;;;;;;4997025;28;20206;-84
2023/03/16 12:43:25;;;;;;;1.77;0.47;;;9.80;75.80;;;;;;4997046;28;20198;-84
2023/03/16 12:46:23;;;;;;;1.48;0.63;;;10.00;72.00;;;;;;4996877;28;20183;-86
2023/03/16 12:48:56;;;;;;;2.75;0.50;;;9.90;71.00;;;;;;4996370;28;20226;-84
2023/03/16 12:51:35;;;;;;;0.40;0.30;;;10.00;75.00;;;;;;4996692;28;20567;-85
2023/03/16 12:54:02;;;;;;;2.75;0.50;;;10.00;73.70;;;;;;4996661;28;20210;-85
2023/03/16 12:56:42;;;;;;;1.45;0.80;;;10.10;74.90;;;;;;4996260;28;20182;-83
2023/03/16 12:59:21;;;;;;;0.90;0.50;;;10.10;73.50;;;;;;4996628;28;20175;-85
2023/03/16 13:01:56;;;;;;;1.27;0.40;;;10.10;74.20;;;;;;5003574;28;20673;-85
2023/03/16 13:04:41;;;;;;;0.90;0.45;;;10.10;72.00;;;;;;5012769;28;20179;-84
2023/03/16 13:07:17;;;;;;;1.95;0.70;;;10.10;75.20;;;;;;5012846;28;20171;-85
2023/03/16 13:09:56;;;;;;;0.98;0.50;;;10.10;74.50;;;;;;5012734;28;20174;-86
2023/03/16 13:12:31;;;;;;;0.90;0.50;;;10.00;73.80;;;;;;5012882;28;20179;-83
2023/03/16 13:14:58;;;;;;;2.70;0.40;;;10.10;72.50;;;;;;5012004;28;20175;-85